VOI100 MMMX-MMUN
Flight info
| Callsign | VOI100 |
|---|---|
| Flight time | 1h 44m |
| Altitude | 37000 |
| Route | NOXOS2B NOXOS UT155 ELURA DCT XUDUN XUDUN1A |
| Aircraft | A20N/M-SDE2E3FGHIRWXY/LB1 |
Departure
| Time | 2026-05-07 00:50 |
|---|---|
| Airport | Mexico City Benito Juárez International Airport (MMMX) |
Arrival
| Time | 2026-05-07 02:34 |
|---|---|
| Airport | Cancún International Airport (MMUN) |
| Time | Latitude | Longitude | Altitude | Speed | Heading |
|---|---|---|---|---|---|
| 2026-05-07 00:11 | 19.43251 | -99.08746 | 7302 ft | 0 kts | 104° |
| 2026-05-07 00:33 | 19.43254 | -99.08756 | 7302 ft | 2 kts | 111° |
| 2026-05-07 00:33 | 19.43261 | -99.08771 | 7302 ft | 2 kts | 137° |
| 2026-05-07 00:33 | 19.43276 | -99.08777 | 7303 ft | 2 kts | 196° |
| 2026-05-07 00:34 | 19.43287 | -99.08772 | 7302 ft | 1 kts | 211° |
| 2026-05-07 00:34 | 19.43289 | -99.08771 | 7302 ft | 0 kts | 212° |
| 2026-05-07 00:44 | 19.43288 | -99.08772 | 7302 ft | 1 kts | 212° |
| 2026-05-07 00:45 | 19.43281 | -99.08777 | 7302 ft | 2 kts | 212° |
| 2026-05-07 00:45 | 19.43266 | -99.08787 | 7302 ft | 3 kts | 211° |
| 2026-05-07 00:45 | 19.43241 | -99.08792 | 7302 ft | 4 kts | 181° |
| 2026-05-07 00:45 | 19.43208 | -99.08791 | 7302 ft | 5 kts | 187° |
| 2026-05-07 00:46 | 19.43176 | -99.08810 | 7302 ft | 6 kts | 213° |
| 2026-05-07 00:46 | 19.43140 | -99.08835 | 7302 ft | 7 kts | 213° |
| 2026-05-07 00:46 | 19.43098 | -99.08864 | 7302 ft | 8 kts | 213° |
| 2026-05-07 00:46 | 19.43050 | -99.08895 | 7302 ft | 8 kts | 208° |
| 2026-05-07 00:47 | 19.42998 | -99.08924 | 7302 ft | 9 kts | 207° |
| 2026-05-07 00:47 | 19.42952 | -99.08949 | 7302 ft | 8 kts | 213° |
| 2026-05-07 00:47 | 19.42920 | -99.08995 | 7302 ft | 8 kts | 235° |
| 2026-05-07 00:47 | 19.42875 | -99.09037 | 7302 ft | 9 kts | 210° |
| 2026-05-07 00:48 | 19.42819 | -99.09070 | 7302 ft | 10 kts | 208° |
| 2026-05-07 00:48 | 19.42763 | -99.09081 | 7302 ft | 7 kts | 148° |
| 2026-05-07 00:48 | 19.42764 | -99.09041 | 7302 ft | 6 kts | 59° |
| 2026-05-07 00:48 | 19.42766 | -99.09037 | 7302 ft | 2 kts | 59° |
| 2026-05-07 00:49 | 19.42835 | -99.08913 | 7303 ft | 50 kts | 59° |
| 2026-05-07 00:49 | 19.43128 | -99.08395 | 7301 ft | 111 kts | 58° |
| 2026-05-07 00:49 | 19.43611 | -99.07532 | 7303 ft | 158 kts | 59° |
| 2026-05-07 00:49 | 19.44234 | -99.06424 | 7451 ft | 183 kts | 62° |
| 2026-05-07 00:50 | 19.44857 | -99.05300 | 8048 ft | 179 kts | 60° |
| 2026-05-07 00:50 | 19.45501 | -99.04143 | 8647 ft | 185 kts | 62° |
| 2026-05-07 00:50 | 19.46179 | -99.02939 | 9106 ft | 195 kts | 62° |
| 2026-05-07 00:50 | 19.46906 | -99.01643 | 9269 ft | 214 kts | 61° |
| 2026-05-07 00:51 | 19.47699 | -99.00236 | 9389 ft | 231 kts | 61° |
| 2026-05-07 00:51 | 19.48562 | -98.98714 | 9476 ft | 251 kts | 60° |
| 2026-05-07 00:51 | 19.49503 | -98.97051 | 9555 ft | 274 kts | 59° |
| 2026-05-07 00:51 | 19.50519 | -98.95244 | 9739 ft | 295 kts | 59° |
| 2026-05-07 00:52 | 19.51579 | -98.93349 | 10324 ft | 300 kts | 59° |
| 2026-05-07 00:52 | 19.52642 | -98.91437 | 10991 ft | 303 kts | 62° |
| 2026-05-07 00:52 | 19.53503 | -98.89396 | 11663 ft | 304 kts | 72° |
| 2026-05-07 00:52 | 19.54083 | -98.87243 | 12365 ft | 306 kts | 76° |
| 2026-05-07 00:53 | 19.54641 | -98.85085 | 13071 ft | 307 kts | 76° |
| 2026-05-07 00:53 | 19.55216 | -98.82891 | 13739 ft | 311 kts | 76° |
| 2026-05-07 00:53 | 19.55801 | -98.80675 | 14356 ft | 313 kts | 76° |
| 2026-05-07 00:53 | 19.56388 | -98.78455 | 14989 ft | 314 kts | 76° |
| 2026-05-07 00:54 | 19.56980 | -98.76206 | 15538 ft | 318 kts | 76° |
| 2026-05-07 00:54 | 19.57575 | -98.73949 | 16203 ft | 318 kts | 76° |
| 2026-05-07 00:54 | 19.58061 | -98.71650 | 16746 ft | 322 kts | 81° |
| 2026-05-07 00:54 | 19.58473 | -98.69241 | 16892 ft | 342 kts | 81° |
| 2026-05-07 00:55 | 19.58912 | -98.66702 | 17061 ft | 359 kts | 81° |
| 2026-05-07 00:55 | 19.59375 | -98.64035 | 17217 ft | 375 kts | 82° |
| 2026-05-07 00:55 | 19.59856 | -98.61287 | 17600 ft | 382 kts | 82° |
| 2026-05-07 00:55 | 19.60343 | -98.58501 | 18131 ft | 386 kts | 81° |
| 2026-05-07 00:56 | 19.60828 | -98.55725 | 18607 ft | 389 kts | 81° |
| 2026-05-07 00:56 | 19.61314 | -98.52886 | 19060 ft | 392 kts | 83° |
| 2026-05-07 00:56 | 19.61548 | -98.50001 | 19514 ft | 393 kts | 91° |
| 2026-05-07 00:56 | 19.61492 | -98.47094 | 20007 ft | 396 kts | 94° |
| 2026-05-07 00:57 | 19.61412 | -98.44158 | 20406 ft | 400 kts | 93° |
| 2026-05-07 00:57 | 19.61337 | -98.41197 | 20867 ft | 403 kts | 93° |
| 2026-05-07 00:57 | 19.61263 | -98.38213 | 21327 ft | 406 kts | 93° |
| 2026-05-07 00:57 | 19.61182 | -98.35204 | 21747 ft | 410 kts | 93° |
| 2026-05-07 00:58 | 19.61101 | -98.32175 | 22268 ft | 410 kts | 93° |
| 2026-05-07 00:58 | 19.61020 | -98.29132 | 22726 ft | 414 kts | 93° |
| 2026-05-07 00:58 | 19.60936 | -98.26061 | 23130 ft | 418 kts | 93° |
| 2026-05-07 00:58 | 19.60853 | -98.22979 | 23611 ft | 419 kts | 94° |
| 2026-05-07 00:59 | 19.60683 | -98.16779 | 24295 ft | 426 kts | 93° |
| 2026-05-07 00:59 | 19.60596 | -98.13628 | 24665 ft | 429 kts | 94° |
| 2026-05-07 00:59 | 19.60507 | -98.10458 | 25007 ft | 432 kts | 93° |
| 2026-05-07 01:00 | 19.60417 | -98.07255 | 25349 ft | 435 kts | 93° |
| 2026-05-07 01:00 | 19.60388 | -98.04041 | 25686 ft | 438 kts | 88° |
| 2026-05-07 01:00 | 19.60807 | -98.00821 | 26031 ft | 443 kts | 78° |
| 2026-05-07 01:00 | 19.61739 | -97.97693 | 26338 ft | 448 kts | 68° |
| 2026-05-07 01:01 | 19.63105 | -97.94709 | 26680 ft | 450 kts | 64° |
| 2026-05-07 01:01 | 19.64520 | -97.91735 | 26991 ft | 453 kts | 64° |
| 2026-05-07 01:01 | 19.65935 | -97.88738 | 27280 ft | 456 kts | 64° |
| 2026-05-07 01:01 | 19.67356 | -97.85720 | 27589 ft | 458 kts | 64° |
| 2026-05-07 01:02 | 19.68765 | -97.82725 | 27881 ft | 461 kts | 64° |
| 2026-05-07 01:02 | 19.70199 | -97.79675 | 28188 ft | 463 kts | 64° |
| 2026-05-07 01:02 | 19.71640 | -97.76610 | 28476 ft | 466 kts | 64° |
| 2026-05-07 01:02 | 19.73091 | -97.73523 | 28733 ft | 468 kts | 64° |
| 2026-05-07 01:03 | 19.74548 | -97.70423 | 29019 ft | 470 kts | 64° |
| 2026-05-07 01:03 | 19.75534 | -97.68322 | 29205 ft | 472 kts | 64° |
| 2026-05-07 01:03 | 19.77001 | -97.65197 | 29474 ft | 475 kts | 64° |
| 2026-05-07 01:03 | 19.78477 | -97.62051 | 29706 ft | 477 kts | 64° |
| 2026-05-07 01:04 | 19.79959 | -97.58891 | 29959 ft | 479 kts | 64° |
| 2026-05-07 01:04 | 19.81423 | -97.55766 | 30267 ft | 479 kts | 64° |
| 2026-05-07 01:04 | 19.82910 | -97.52591 | 30515 ft | 481 kts | 64° |
| 2026-05-07 01:04 | 19.84402 | -97.49403 | 30762 ft | 483 kts | 64° |
| 2026-05-07 01:05 | 19.85897 | -97.46207 | 31021 ft | 484 kts | 64° |
| 2026-05-07 01:05 | 19.87397 | -97.43001 | 31351 ft | 484 kts | 64° |
| 2026-05-07 01:05 | 19.88892 | -97.39802 | 31700 ft | 483 kts | 64° |
| 2026-05-07 01:05 | 19.90386 | -97.36605 | 32058 ft | 482 kts | 64° |
| 2026-05-07 01:06 | 19.91874 | -97.33414 | 32344 ft | 481 kts | 64° |
| 2026-05-07 01:06 | 19.93359 | -97.30228 | 32681 ft | 480 kts | 64° |
| 2026-05-07 01:06 | 19.94837 | -97.27056 | 32985 ft | 480 kts | 64° |
| 2026-05-07 01:06 | 19.96319 | -97.23873 | 33308 ft | 479 kts | 64° |
| 2026-05-07 01:07 | 19.97794 | -97.20702 | 33617 ft | 478 kts | 64° |
| 2026-05-07 01:07 | 19.99268 | -97.17534 | 33911 ft | 478 kts | 64° |
| 2026-05-07 01:07 | 20.00744 | -97.14358 | 34068 ft | 480 kts | 64° |
| 2026-05-07 01:07 | 20.02222 | -97.11177 | 34306 ft | 480 kts | 64° |
| 2026-05-07 01:08 | 20.03697 | -97.07999 | 34533 ft | 480 kts | 64° |
| 2026-05-07 01:08 | 20.05175 | -97.04814 | 34754 ft | 480 kts | 64° |
| 2026-05-07 01:08 | 20.06651 | -97.01631 | 34940 ft | 480 kts | 64° |
| 2026-05-07 01:08 | 20.08106 | -96.98490 | 35142 ft | 480 kts | 64° |
| 2026-05-07 01:09 | 20.09579 | -96.95310 | 35349 ft | 479 kts | 64° |
| 2026-05-07 01:09 | 20.11052 | -96.92128 | 35568 ft | 480 kts | 64° |
| 2026-05-07 01:09 | 20.12529 | -96.88936 | 35781 ft | 479 kts | 64° |
| 2026-05-07 01:09 | 20.14001 | -96.85752 | 35989 ft | 479 kts | 64° |
| 2026-05-07 01:10 | 20.15474 | -96.82565 | 36203 ft | 479 kts | 64° |
| 2026-05-07 01:10 | 20.16944 | -96.79382 | 36424 ft | 478 kts | 64° |
| 2026-05-07 01:10 | 20.18271 | -96.76209 | 36598 ft | 478 kts | 70° |
| 2026-05-07 01:10 | 20.19330 | -96.72838 | 36749 ft | 478 kts | 75° |
| 2026-05-07 01:11 | 20.20082 | -96.69401 | 36746 ft | 476 kts | 81° |
| 2026-05-07 01:11 | 20.21271 | -96.62477 | 36744 ft | 475 kts | 80° |
| 2026-05-07 01:12 | 20.22482 | -96.55559 | 36740 ft | 476 kts | 80° |
| 2026-05-07 01:12 | 20.23690 | -96.48626 | 36751 ft | 475 kts | 81° |
| 2026-05-07 01:13 | 20.24884 | -96.41743 | 36734 ft | 477 kts | 81° |
| 2026-05-07 01:13 | 20.26063 | -96.34925 | 36752 ft | 477 kts | 81° |
| 2026-05-07 01:14 | 20.27260 | -96.27990 | 36758 ft | 477 kts | 81° |
| 2026-05-07 01:14 | 20.28457 | -96.21041 | 36762 ft | 478 kts | 81° |
| 2026-05-07 01:15 | 20.29651 | -96.14088 | 36764 ft | 478 kts | 81° |
| 2026-05-07 01:15 | 20.30842 | -96.07138 | 36762 ft | 476 kts | 81° |
| 2026-05-07 01:16 | 20.32014 | -96.00277 | 36765 ft | 473 kts | 81° |
| 2026-05-07 01:16 | 20.33193 | -95.93365 | 36771 ft | 474 kts | 81° |
| 2026-05-07 01:17 | 20.34368 | -95.86461 | 36769 ft | 473 kts | 81° |
| 2026-05-07 01:17 | 20.35541 | -95.79551 | 36768 ft | 473 kts | 81° |
| 2026-05-07 01:18 | 20.36710 | -95.72644 | 36774 ft | 473 kts | 81° |
| 2026-05-07 01:18 | 20.37870 | -95.65777 | 36771 ft | 473 kts | 81° |
| 2026-05-07 01:19 | 20.39033 | -95.58873 | 36770 ft | 474 kts | 81° |
| 2026-05-07 01:19 | 20.40197 | -95.51949 | 36772 ft | 474 kts | 81° |
| 2026-05-07 01:20 | 20.41357 | -95.45027 | 36778 ft | 474 kts | 81° |
| 2026-05-07 01:20 | 20.42515 | -95.38106 | 36778 ft | 474 kts | 81° |
| 2026-05-07 01:21 | 20.43672 | -95.31167 | 36783 ft | 475 kts | 81° |
| 2026-05-07 01:21 | 20.44818 | -95.24282 | 36783 ft | 475 kts | 81° |
| 2026-05-07 01:22 | 20.45968 | -95.17350 | 36787 ft | 475 kts | 81° |
| 2026-05-07 01:22 | 20.47120 | -95.10394 | 36789 ft | 475 kts | 81° |
| 2026-05-07 01:23 | 20.48267 | -95.03449 | 36787 ft | 476 kts | 81° |
| 2026-05-07 01:23 | 20.49395 | -94.96487 | 36791 ft | 476 kts | 82° |
| 2026-05-07 01:24 | 20.50440 | -94.89564 | 36792 ft | 475 kts | 82° |
| 2026-05-07 01:24 | 20.51494 | -94.82619 | 36794 ft | 475 kts | 82° |
| 2026-05-07 01:25 | 20.52557 | -94.75658 | 36796 ft | 475 kts | 82° |
| 2026-05-07 01:25 | 20.53620 | -94.68698 | 36799 ft | 475 kts | 82° |
| 2026-05-07 01:26 | 20.54678 | -94.61747 | 36802 ft | 475 kts | 82° |
| 2026-05-07 01:26 | 20.55731 | -94.54798 | 36807 ft | 475 kts | 82° |
| 2026-05-07 01:27 | 20.56781 | -94.47841 | 36807 ft | 475 kts | 82° |
| 2026-05-07 01:27 | 20.57827 | -94.40893 | 36809 ft | 475 kts | 82° |
| 2026-05-07 01:28 | 20.58864 | -94.33984 | 36809 ft | 475 kts | 82° |
| 2026-05-07 01:28 | 20.59907 | -94.27023 | 36810 ft | 475 kts | 82° |
| 2026-05-07 01:29 | 20.60945 | -94.20070 | 36818 ft | 475 kts | 82° |
| 2026-05-07 01:29 | 20.61980 | -94.13119 | 36818 ft | 474 kts | 82° |
| 2026-05-07 01:30 | 20.63011 | -94.06171 | 36820 ft | 474 kts | 82° |
| 2026-05-07 01:30 | 20.64040 | -93.99220 | 36821 ft | 474 kts | 82° |
| 2026-05-07 01:31 | 20.65065 | -93.92278 | 36820 ft | 473 kts | 82° |
| 2026-05-07 01:31 | 20.66086 | -93.85343 | 36815 ft | 472 kts | 82° |
| 2026-05-07 01:32 | 20.67098 | -93.78448 | 36821 ft | 471 kts | 82° |
| 2026-05-07 01:32 | 20.68110 | -93.71534 | 36820 ft | 471 kts | 82° |
| 2026-05-07 01:33 | 20.69111 | -93.64672 | 36818 ft | 470 kts | 82° |
| 2026-05-07 01:33 | 20.70116 | -93.57766 | 36815 ft | 470 kts | 82° |
| 2026-05-07 01:34 | 20.71117 | -93.50871 | 36821 ft | 470 kts | 82° |
| 2026-05-07 01:34 | 20.72116 | -93.43967 | 36820 ft | 470 kts | 82° |
| 2026-05-07 01:35 | 20.73113 | -93.37058 | 36821 ft | 471 kts | 82° |
| 2026-05-07 01:35 | 20.74107 | -93.30145 | 36828 ft | 471 kts | 82° |
| 2026-05-07 01:36 | 20.75094 | -93.23269 | 36828 ft | 471 kts | 82° |
| 2026-05-07 01:36 | 20.76084 | -93.16347 | 36831 ft | 472 kts | 82° |
| 2026-05-07 01:37 | 20.77072 | -93.09413 | 36838 ft | 472 kts | 82° |
| 2026-05-07 01:37 | 20.78060 | -93.02473 | 36852 ft | 472 kts | 82° |
| 2026-05-07 01:38 | 20.79045 | -92.95523 | 36842 ft | 473 kts | 82° |
| 2026-05-07 01:38 | 20.80028 | -92.88567 | 36851 ft | 474 kts | 82° |
| 2026-05-07 01:39 | 20.81010 | -92.81600 | 36853 ft | 474 kts | 82° |
| 2026-05-07 01:39 | 20.81989 | -92.74632 | 36856 ft | 474 kts | 82° |
| 2026-05-07 01:40 | 20.82965 | -92.67661 | 36854 ft | 474 kts | 82° |
| 2026-05-07 01:40 | 20.83941 | -92.60684 | 36859 ft | 475 kts | 82° |
| 2026-05-07 01:41 | 20.84913 | -92.53701 | 36866 ft | 474 kts | 82° |
| 2026-05-07 01:41 | 20.85881 | -92.46724 | 36867 ft | 474 kts | 82° |
| 2026-05-07 01:42 | 20.86841 | -92.39790 | 36868 ft | 474 kts | 83° |
| 2026-05-07 01:42 | 20.87802 | -92.32823 | 36862 ft | 474 kts | 83° |
| 2026-05-07 01:43 | 20.88760 | -92.25856 | 36865 ft | 473 kts | 83° |
| 2026-05-07 01:43 | 20.89715 | -92.18892 | 36863 ft | 473 kts | 83° |
| 2026-05-07 01:44 | 20.90666 | -92.11934 | 36860 ft | 473 kts | 83° |
| 2026-05-07 01:44 | 20.91614 | -92.04979 | 36863 ft | 472 kts | 83° |
| 2026-05-07 01:45 | 20.92558 | -91.98028 | 36865 ft | 472 kts | 83° |
| 2026-05-07 01:45 | 20.93500 | -91.91072 | 36864 ft | 472 kts | 83° |
| 2026-05-07 01:46 | 20.94440 | -91.84120 | 36865 ft | 472 kts | 83° |
| 2026-05-07 01:46 | 20.95369 | -91.77210 | 36869 ft | 472 kts | 83° |
| 2026-05-07 01:47 | 20.96300 | -91.70266 | 36872 ft | 471 kts | 83° |
| 2026-05-07 01:47 | 20.97229 | -91.63320 | 36869 ft | 471 kts | 83° |
| 2026-05-07 01:48 | 20.98156 | -91.56373 | 36868 ft | 472 kts | 83° |
| 2026-05-07 01:48 | 20.99080 | -91.49423 | 36878 ft | 471 kts | 83° |
| 2026-05-07 01:49 | 20.99999 | -91.42478 | 36879 ft | 472 kts | 83° |
| 2026-05-07 01:49 | 21.00918 | -91.35520 | 36878 ft | 472 kts | 83° |
| 2026-05-07 01:50 | 21.01828 | -91.28607 | 36883 ft | 472 kts | 83° |
| 2026-05-07 01:50 | 21.02741 | -91.21648 | 36886 ft | 472 kts | 83° |
| 2026-05-07 01:51 | 21.03651 | -91.14692 | 36887 ft | 472 kts | 83° |
| 2026-05-07 01:51 | 21.04557 | -91.07746 | 36890 ft | 471 kts | 83° |
| 2026-05-07 01:52 | 21.05460 | -91.00791 | 36889 ft | 471 kts | 83° |
| 2026-05-07 01:52 | 21.06209 | -90.95016 | 36881 ft | 471 kts | 83° |
| 2026-05-07 01:53 | 21.07107 | -90.88061 | 36886 ft | 471 kts | 83° |
| 2026-05-07 01:53 | 21.07997 | -90.81148 | 36882 ft | 471 kts | 83° |
| 2026-05-07 01:54 | 21.08888 | -90.74203 | 36887 ft | 470 kts | 83° |
| 2026-05-07 01:54 | 21.09777 | -90.67258 | 36887 ft | 470 kts | 83° |
| 2026-05-07 01:55 | 21.10661 | -90.60319 | 36884 ft | 470 kts | 83° |
| 2026-05-07 01:55 | 21.11542 | -90.53387 | 36876 ft | 470 kts | 84° |
| 2026-05-07 01:56 | 21.12419 | -90.46459 | 36878 ft | 470 kts | 84° |
| 2026-05-07 01:56 | 21.13289 | -90.39568 | 36887 ft | 470 kts | 84° |
| 2026-05-07 01:57 | 21.14163 | -90.32625 | 36876 ft | 470 kts | 84° |
| 2026-05-07 01:57 | 21.15032 | -90.25689 | 36879 ft | 470 kts | 84° |
| 2026-05-07 01:58 | 21.15900 | -90.18745 | 36881 ft | 470 kts | 84° |
| 2026-05-07 01:58 | 21.16765 | -90.11796 | 36889 ft | 471 kts | 84° |
| 2026-05-07 01:59 | 21.17628 | -90.04847 | 36892 ft | 471 kts | 84° |
| 2026-05-07 01:59 | 21.18489 | -89.97882 | 36900 ft | 471 kts | 84° |
| 2026-05-07 02:00 | 21.19339 | -89.90985 | 36899 ft | 472 kts | 84° |
| 2026-05-07 02:00 | 21.20196 | -89.84015 | 36903 ft | 472 kts | 84° |
| 2026-05-07 02:01 | 21.21049 | -89.77044 | 36908 ft | 472 kts | 84° |
| 2026-05-07 02:01 | 21.21901 | -89.70059 | 36913 ft | 473 kts | 84° |
| 2026-05-07 02:02 | 21.22747 | -89.63103 | 36923 ft | 473 kts | 84° |
| 2026-05-07 02:02 | 21.23594 | -89.56111 | 36920 ft | 473 kts | 84° |
| 2026-05-07 02:03 | 21.24439 | -89.49113 | 36921 ft | 473 kts | 84° |
| 2026-05-07 02:03 | 21.25281 | -89.42111 | 36928 ft | 473 kts | 84° |
| 2026-05-07 02:04 | 21.26113 | -89.35170 | 36753 ft | 472 kts | 84° |
| 2026-05-07 02:04 | 21.26535 | -89.31643 | 36500 ft | 471 kts | 84° |
| 2026-05-07 02:04 | 21.26950 | -89.28161 | 36207 ft | 471 kts | 84° |
| 2026-05-07 02:04 | 21.27360 | -89.24713 | 35594 ft | 474 kts | 84° |
| 2026-05-07 02:05 | 21.27779 | -89.21191 | 34752 ft | 480 kts | 84° |
| 2026-05-07 02:05 | 21.28201 | -89.17624 | 33907 ft | 484 kts | 84° |
| 2026-05-07 02:05 | 21.28626 | -89.14036 | 33099 ft | 485 kts | 84° |
| 2026-05-07 02:05 | 21.29051 | -89.10451 | 32286 ft | 485 kts | 84° |
| 2026-05-07 02:06 | 21.29476 | -89.06852 | 31431 ft | 487 kts | 84° |
| 2026-05-07 02:06 | 21.29899 | -89.03248 | 30647 ft | 487 kts | 84° |
| 2026-05-07 02:06 | 21.30325 | -88.99634 | 29928 ft | 486 kts | 84° |
| 2026-05-07 02:06 | 21.30745 | -88.96062 | 29347 ft | 479 kts | 84° |
| 2026-05-07 02:07 | 21.31158 | -88.92538 | 28748 ft | 473 kts | 84° |
| 2026-05-07 02:07 | 21.31969 | -88.85615 | 27552 ft | 463 kts | 84° |
| 2026-05-07 02:07 | 21.32364 | -88.82215 | 26959 ft | 458 kts | 84° |
| 2026-05-07 02:08 | 21.32757 | -88.78839 | 26363 ft | 453 kts | 84° |
| 2026-05-07 02:08 | 21.33144 | -88.75499 | 25777 ft | 449 kts | 84° |
| 2026-05-07 02:08 | 21.33528 | -88.72186 | 25189 ft | 445 kts | 85° |
| 2026-05-07 02:08 | 21.33909 | -88.68895 | 24588 ft | 442 kts | 84° |
| 2026-05-07 02:09 | 21.34287 | -88.65642 | 23995 ft | 439 kts | 85° |
| 2026-05-07 02:09 | 21.34662 | -88.62402 | 23390 ft | 435 kts | 85° |
| 2026-05-07 02:09 | 21.35031 | -88.59199 | 22794 ft | 430 kts | 84° |
| 2026-05-07 02:09 | 21.35397 | -88.56036 | 22211 ft | 424 kts | 84° |
| 2026-05-07 02:10 | 21.35757 | -88.52913 | 21634 ft | 419 kts | 85° |
| 2026-05-07 02:10 | 21.36106 | -88.49873 | 21055 ft | 413 kts | 84° |
| 2026-05-07 02:10 | 21.36454 | -88.46824 | 20498 ft | 399 kts | 84° |
| 2026-05-07 02:10 | 21.36697 | -88.43948 | 20028 ft | 385 kts | 89° |
| 2026-05-07 02:11 | 21.36609 | -88.41122 | 19620 ft | 373 kts | 96° |
| 2026-05-07 02:11 | 21.36198 | -88.38399 | 19336 ft | 369 kts | 103° |
| 2026-05-07 02:11 | 21.35610 | -88.35694 | 18920 ft | 374 kts | 103° |
| 2026-05-07 02:11 | 21.35034 | -88.32979 | 18592 ft | 370 kts | 102° |
| 2026-05-07 02:12 | 21.34469 | -88.30289 | 18025 ft | 370 kts | 102° |
| 2026-05-07 02:12 | 21.33912 | -88.27638 | 17407 ft | 367 kts | 102° |
| 2026-05-07 02:12 | 21.33349 | -88.24963 | 16998 ft | 360 kts | 102° |
| 2026-05-07 02:12 | 21.32807 | -88.22397 | 16577 ft | 355 kts | 102° |
| 2026-05-07 02:13 | 21.32270 | -88.19856 | 16119 ft | 351 kts | 102° |
| 2026-05-07 02:13 | 21.31731 | -88.17305 | 15686 ft | 349 kts | 102° |
| 2026-05-07 02:13 | 21.31191 | -88.14757 | 15258 ft | 350 kts | 102° |
| 2026-05-07 02:13 | 21.30654 | -88.12223 | 14821 ft | 347 kts | 102° |
| 2026-05-07 02:14 | 21.30121 | -88.09712 | 14401 ft | 344 kts | 102° |
| 2026-05-07 02:14 | 21.29602 | -88.07273 | 14200 ft | 326 kts | 102° |
| 2026-05-07 02:14 | 21.29103 | -88.04966 | 13923 ft | 312 kts | 102° |
| 2026-05-07 02:14 | 21.28614 | -88.02742 | 13368 ft | 308 kts | 102° |
| 2026-05-07 02:15 | 21.28126 | -88.00523 | 12790 ft | 304 kts | 102° |
| 2026-05-07 02:15 | 21.27643 | -87.98330 | 12412 ft | 299 kts | 102° |
| 2026-05-07 02:15 | 21.27168 | -87.96170 | 12045 ft | 297 kts | 102° |
| 2026-05-07 02:15 | 21.26695 | -87.94021 | 11674 ft | 295 kts | 102° |
| 2026-05-07 02:16 | 21.26224 | -87.91883 | 11312 ft | 293 kts | 103° |
| 2026-05-07 02:16 | 21.25760 | -87.89774 | 10946 ft | 290 kts | 103° |
| 2026-05-07 02:16 | 21.25297 | -87.87671 | 10590 ft | 288 kts | 103° |
| 2026-05-07 02:16 | 21.24839 | -87.85584 | 10224 ft | 286 kts | 103° |
| 2026-05-07 02:17 | 21.24384 | -87.83511 | 9871 ft | 284 kts | 103° |
| 2026-05-07 02:17 | 21.23932 | -87.81458 | 9490 ft | 282 kts | 103° |
| 2026-05-07 02:17 | 21.23484 | -87.79429 | 9150 ft | 278 kts | 103° |
| 2026-05-07 02:17 | 21.23037 | -87.77409 | 8805 ft | 279 kts | 103° |
| 2026-05-07 02:18 | 21.22594 | -87.75406 | 8452 ft | 279 kts | 104° |
| 2026-05-07 02:18 | 21.22158 | -87.73386 | 8122 ft | 277 kts | 101° |
| 2026-05-07 02:18 | 21.21966 | -87.71345 | 7809 ft | 274 kts | 91° |
| 2026-05-07 02:18 | 21.22003 | -87.69297 | 7545 ft | 276 kts | 90° |
| 2026-05-07 02:19 | 21.22036 | -87.67257 | 7287 ft | 273 kts | 90° |
| 2026-05-07 02:19 | 21.22062 | -87.65212 | 7007 ft | 273 kts | 90° |
| 2026-05-07 02:19 | 21.22086 | -87.63189 | 6747 ft | 271 kts | 90° |
| 2026-05-07 02:19 | 21.22110 | -87.61170 | 6477 ft | 271 kts | 90° |
| 2026-05-07 02:20 | 21.22134 | -87.59156 | 6207 ft | 270 kts | 91° |
| 2026-05-07 02:20 | 21.22159 | -87.57142 | 5935 ft | 269 kts | 91° |
| 2026-05-07 02:20 | 21.22183 | -87.55147 | 5681 ft | 266 kts | 91° |
| 2026-05-07 02:20 | 21.22208 | -87.53160 | 5424 ft | 267 kts | 91° |
| 2026-05-07 02:21 | 21.22231 | -87.51188 | 5160 ft | 263 kts | 91° |
| 2026-05-07 02:21 | 21.22254 | -87.49232 | 4897 ft | 261 kts | 92° |
| 2026-05-07 02:21 | 21.22276 | -87.47294 | 4724 ft | 257 kts | 92° |
| 2026-05-07 02:21 | 21.22301 | -87.45431 | 4610 ft | 242 kts | 92° |
| 2026-05-07 02:22 | 21.22323 | -87.43701 | 4380 ft | 232 kts | 92° |
| 2026-05-07 02:22 | 21.22341 | -87.41973 | 3971 ft | 229 kts | 92° |
| 2026-05-07 02:22 | 21.22360 | -87.40282 | 3714 ft | 225 kts | 93° |
| 2026-05-07 02:22 | 21.22376 | -87.38625 | 3501 ft | 222 kts | 93° |
| 2026-05-07 02:23 | 21.22391 | -87.36963 | 3286 ft | 224 kts | 93° |
| 2026-05-07 02:23 | 21.22408 | -87.35309 | 3077 ft | 221 kts | 93° |
| 2026-05-07 02:23 | 21.22359 | -87.33661 | 2982 ft | 219 kts | 98° |
| 2026-05-07 02:23 | 21.22252 | -87.32059 | 2980 ft | 216 kts | 97° |
| 2026-05-07 02:24 | 21.22144 | -87.30434 | 2965 ft | 219 kts | 97° |
| 2026-05-07 02:24 | 21.22040 | -87.28814 | 2976 ft | 220 kts | 97° |
| 2026-05-07 02:24 | 21.21938 | -87.27180 | 2978 ft | 220 kts | 97° |
| 2026-05-07 02:24 | 21.21839 | -87.25562 | 2978 ft | 217 kts | 97° |
| 2026-05-07 02:25 | 21.21737 | -87.23929 | 2956 ft | 219 kts | 97° |
| 2026-05-07 02:25 | 21.21637 | -87.22311 | 2689 ft | 216 kts | 97° |
| 2026-05-07 02:25 | 21.21540 | -87.20765 | 2530 ft | 216 kts | 97° |
| 2026-05-07 02:25 | 21.21434 | -87.19131 | 2348 ft | 215 kts | 97° |
| 2026-05-07 02:26 | 21.21331 | -87.17521 | 2166 ft | 217 kts | 97° |
| 2026-05-07 02:26 | 21.21096 | -87.15954 | 2000 ft | 210 kts | 111° |
| 2026-05-07 02:26 | 21.20449 | -87.14568 | 1980 ft | 208 kts | 126° |
| 2026-05-07 02:26 | 21.19624 | -87.13283 | 1979 ft | 208 kts | 126° |
| 2026-05-07 02:27 | 21.18825 | -87.12010 | 1979 ft | 208 kts | 125° |
| 2026-05-07 02:27 | 21.18025 | -87.10722 | 1973 ft | 202 kts | 125° |
| 2026-05-07 02:27 | 21.17289 | -87.09531 | 1979 ft | 181 kts | 125° |
| 2026-05-07 02:27 | 21.16635 | -87.08473 | 2009 ft | 160 kts | 126° |
| 2026-05-07 02:28 | 21.16046 | -87.07522 | 1982 ft | 146 kts | 126° |
| 2026-05-07 02:28 | 21.15486 | -87.06628 | 1952 ft | 148 kts | 126° |
| 2026-05-07 02:28 | 21.14913 | -87.05723 | 1841 ft | 145 kts | 127° |
| 2026-05-07 02:28 | 21.14346 | -87.04828 | 1754 ft | 145 kts | 127° |
| 2026-05-07 02:29 | 21.13779 | -87.03926 | 1671 ft | 146 kts | 126° |
| 2026-05-07 02:29 | 21.13208 | -87.03022 | 1583 ft | 148 kts | 125° |
| 2026-05-07 02:29 | 21.12653 | -87.02135 | 1497 ft | 146 kts | 124° |
| 2026-05-07 02:29 | 21.12091 | -87.01231 | 1411 ft | 148 kts | 124° |
| 2026-05-07 02:30 | 21.11533 | -87.00334 | 1363 ft | 137 kts | 124° |
| 2026-05-07 02:30 | 21.11022 | -86.99515 | 1306 ft | 132 kts | 124° |
| 2026-05-07 02:30 | 21.10515 | -86.98700 | 1285 ft | 131 kts | 124° |
| 2026-05-07 02:30 | 21.10005 | -86.97882 | 1287 ft | 132 kts | 124° |
| 2026-05-07 02:31 | 21.09496 | -86.97065 | 1285 ft | 131 kts | 124° |
| 2026-05-07 02:31 | 21.08991 | -86.96254 | 1300 ft | 131 kts | 124° |
| 2026-05-07 02:31 | 21.08487 | -86.95445 | 1298 ft | 131 kts | 124° |
| 2026-05-07 02:31 | 21.07979 | -86.94628 | 1224 ft | 132 kts | 124° |
| 2026-05-07 02:32 | 21.07483 | -86.93831 | 1042 ft | 127 kts | 123° |
| 2026-05-07 02:32 | 21.06985 | -86.93032 | 911 ft | 130 kts | 124° |
| 2026-05-07 02:32 | 21.06487 | -86.92232 | 730 ft | 126 kts | 127° |
| 2026-05-07 02:32 | 21.05998 | -86.91458 | 562 ft | 131 kts | 126° |
| 2026-05-07 02:33 | 21.05506 | -86.90649 | 358 ft | 130 kts | 124° |
| 2026-05-07 02:33 | 21.05001 | -86.89838 | 260 ft | 131 kts | 127° |
| 2026-05-07 02:33 | 21.04462 | -86.88988 | 119 ft | 139 kts | 125° |
| 2026-05-07 02:33 | 21.03967 | -86.88188 | 41 ft | 120 kts | 125° |
| 2026-05-07 02:34 | 21.03584 | -86.87587 | 40 ft | 69 kts | 123° |
| 2026-05-07 02:34 | 21.03426 | -86.87331 | 39 ft | 23 kts | 124° |
| 2026-05-07 02:34 | 21.03391 | -86.87277 | 39 ft | 3 kts | 124° |
| 2026-05-07 02:34 | 21.03385 | -86.87227 | 39 ft | 9 kts | 59° |
| 2026-05-07 02:35 | 21.03439 | -86.87183 | 40 ft | 11 kts | 33° |
| 2026-05-07 02:35 | 21.03499 | -86.87151 | 42 ft | 8 kts | 350° |
| 2026-05-07 02:35 | 21.03540 | -86.87200 | 41 ft | 11 kts | 303° |
| 2026-05-07 02:35 | 21.03589 | -86.87279 | 42 ft | 14 kts | 303° |
| 2026-05-07 02:36 | 21.03646 | -86.87371 | 42 ft | 15 kts | 304° |
| 2026-05-07 02:36 | 21.03705 | -86.87464 | 42 ft | 17 kts | 304° |
| 2026-05-07 02:36 | 21.03747 | -86.87530 | 42 ft | 11 kts | 304° |
| 2026-05-07 02:36 | 21.03789 | -86.87597 | 42 ft | 8 kts | 303° |
| 2026-05-07 02:37 | 21.03827 | -86.87627 | 42 ft | 8 kts | 352° |
| 2026-05-07 02:37 | 21.03883 | -86.87628 | 42 ft | 7 kts | 358° |
| 2026-05-07 02:37 | 21.03903 | -86.87629 | 42 ft | 0 kts | 358° |